Time;durP1;ratioP1;P1;durP2;ratioP2;P2;SDS_P1;SDS_P2;PMS_P1;PMS_P2;Temp;Humidity;BMP_temperature;BMP_pressure;BME280_temperature;BME280_humidity;BME280_pressure;Samples;Min_cycle;Max_cycle;Signal;HPM_P1;HPM_P2
2023/12/22 00:02:13;;;;;;;8.63;1.30;;;;;;;;;;6184650;23;20028;-85
2023/12/22 00:04:38;;;;;;;7.10;0.88;;;;;;;;;;6183053;23;20046;-85
2023/12/22 00:07:04;;;;;;;3.97;1.08;;;;;;;;;;6183308;23;20009;-85
2023/12/22 00:09:29;;;;;;;4.80;0.75;;;;;;;;;;6183073;23;20005;-85
2023/12/22 00:11:55;;;;;;;5.95;0.90;;;;;;;;;;6183494;23;20001;-86
2023/12/22 00:14:20;;;;;;;5.30;0.85;;;;;;;;;;6182772;23;20364;-85
2023/12/22 00:16:45;;;;;;;5.70;0.80;;;;;;;;;;6183413;23;20341;-85
2023/12/22 00:19:11;;;;;;;9.63;1.17;;;;;;;;;;6183353;23;20012;-85
2023/12/22 00:21:37;;;;;;;6.15;0.93;;;;;;;;;;6184002;23;20345;-86
2023/12/22 00:24:02;;;;;;;7.70;1.25;;;;;;;;;;6182964;23;20005;-85
2023/12/22 00:26:28;;;;;;;5.22;0.90;;;;;;;;;;6182290;23;20007;-83
2023/12/22 00:28:53;;;;;;;4.22;0.75;;;;;;;;;;6183534;23;20005;-85
2023/12/22 00:31:18;;;;;;;5.10;0.95;;;;;;;;;;6183406;23;20438;-85
2023/12/22 00:33:44;;;;;;;6.90;0.98;;;;;;;;;;6182785;23;20013;-85
2023/12/22 00:36:09;;;;;;;4.32;0.70;;;;;;;;;;6183470;23;20098;-85
2023/12/22 00:38:35;;;;;;;4.03;0.98;;;;;;;;;;6183047;23;20046;-85
2023/12/22 00:41:00;;;;;;;8.35;1.10;;;;;;;;;;6184183;23;20024;-85
2023/12/22 00:43:26;;;;;;;9.85;1.40;;;;;;;;;;6183254;23;20012;-84
2023/12/22 00:45:51;;;;;;;10.95;1.55;;;;;;;;;;6182130;23;20005;-85
2023/12/22 00:48:18;;;;;;;8.15;1.27;;;;;;;;;;6183395;23;20677;-85
2023/12/22 00:50:43;;;;;;;9.07;1.00;;;;;;;;;;6183425;23;20005;-85
2023/12/22 00:53:08;;;;;;;9.63;1.40;;;;;;;;;;6183795;23;20337;-85
2023/12/22 00:55:34;;;;;;;4.47;0.80;;;;;;;;;;6182958;23;20012;-85
2023/12/22 00:57:59;;;;;;;11.05;1.17;;;;;;;;;;6182806;23;20005;-85
2023/12/22 01:00:25;;;;;;;10.90;1.40;;;;;;;;;;6183164;23;20001;-85
2023/12/22 01:02:50;;;;;;;10.98;1.63;;;;;;;;;;6183262;23;20008;-86
2023/12/22 01:05:16;;;;;;;10.93;1.20;;;;;;;;;;6183596;23;20005;-85
2023/12/22 01:07:41;;;;;;;8.70;1.58;;;;;;;;;;6183104;23;20035;-85
2023/12/22 01:10:07;;;;;;;9.30;2.17;;;;;;;;;;6182400;23;20058;-85
2023/12/22 01:12:32;;;;;;;10.88;1.90;;;;;;;;;;6182187;23;20067;-85
2023/12/22 01:14:58;;;;;;;11.02;1.40;;;;;;;;;;6182895;23;20021;-85
2023/12/22 01:17:24;;;;;;;9.10;1.48;;;;;;;;;;6182122;23;20017;-85
2023/12/22 01:19:50;;;;;;;9.57;1.27;;;;;;;;;;6181640;23;20088;-84
2023/12/22 01:22:16;;;;;;;11.57;1.40;;;;;;;;;;6182526;23;20084;-85
2023/12/22 01:24:43;;;;;;;13.60;1.40;;;;;;;;;;6182387;23;20005;-85
2023/12/22 01:27:09;;;;;;;13.30;1.80;;;;;;;;;;6185664;23;20422;-85
2023/12/22 01:29:35;;;;;;;11.43;1.52;;;;;;;;;;6185780;23;20009;-85
2023/12/22 01:32:01;;;;;;;6.20;1.40;;;;;;;;;;6185694;23;20005;-85
2023/12/22 01:34:26;;;;;;;11.68;1.05;;;;;;;;;;6184136;23;20092;-84
2023/12/22 01:36:52;;;;;;;11.48;1.65;;;;;;;;;;6183818;23;20343;-85
2023/12/22 01:39:17;;;;;;;11.60;1.50;;;;;;;;;;6185973;23;20024;-85
2023/12/22 01:41:43;;;;;;;8.88;1.83;;;;;;;;;;6185698;23;20318;-85
2023/12/22 01:44:09;;;;;;;10.13;1.40;;;;;;;;;;6185959;23;20013;-85
2023/12/22 01:46:36;;;;;;;13.07;1.67;;;;;;;;;;6184929;23;20100;-84
2023/12/22 01:49:02;;;;;;;10.90;1.27;;;;;;;;;;6184698;23;20039;-85
2023/12/22 01:51:35;;;;;;;9.90;1.73;;;;;;;;;;6186215;23;20429;-85
2023/12/22 01:54:01;;;;;;;10.52;1.27;;;;;;;;;;6184690;23;20001;-85
2023/12/22 01:56:27;;;;;;;12.85;1.70;;;;;;;;;;6183665;23;20001;-86
2023/12/22 01:58:55;;;;;;;8.95;1.45;;;;;;;;;;6184478;23;20001;-85
2023/12/22 02:01:23;;;;;;;9.82;1.50;;;;;;;;;;6158661;23;20013;-85
2023/12/22 02:03:52;;;;;;;10.18;2.03;;;;;;;;;;6185104;23;20064;-85
2023/12/22 02:06:18;;;;;;;13.52;1.70;;;;;;;;;;6184709;23;20036;-85
2023/12/22 02:08:47;;;;;;;14.55;1.80;;;;;;;;;;6184797;23;20025;-85
2023/12/22 02:11:13;;;;;;;10.80;1.58;;;;;;;;;;6184617;23;20013;-85
2023/12/22 02:13:39;;;;;;;13.77;2.00;;;;;;;;;;6182839;23;20008;-85
2023/12/22 02:16:13;;;;;;;12.70;1.45;;;;;;;;;;6184952;23;20087;-85
2023/12/22 02:18:40;;;;;;;16.10;1.92;;;;;;;;;;6185207;23;20005;-85
2023/12/22 02:21:06;;;;;;;13.68;2.17;;;;;;;;;;6185171;23;20005;-85
2023/12/22 02:23:31;;;;;;;13.80;1.67;;;;;;;;;;6184944;23;20099;-85
2023/12/22 02:26:10;;;;;;;17.80;1.70;;;;;;;;;;6159989;23;20013;-85
2023/12/22 02:28:37;;;;;;;11.57;1.40;;;;;;;;;;6183818;23;20178;-85
2023/12/22 02:31:32;;;;;;;8.30;1.73;;;;;;;;;;6183736;23;20008;-85
2023/12/22 02:33:59;;;;;;;11.93;1.42;;;;;;;;;;6158666;23;20013;-85
2023/12/22 02:36:27;;;;;;;11.05;1.38;;;;;;;;;;6183480;23;20036;-86
2023/12/22 02:38:54;;;;;;;15.70;2.25;;;;;;;;;;6184447;23;20019;-84
2023/12/22 02:41:21;;;;;;;12.38;1.67;;;;;;;;;;6184469;23;20081;-86
2023/12/22 02:43:46;;;;;;;15.45;1.88;;;;;;;;;;6184103;23;20033;-85
2023/12/22 02:46:15;;;;;;;9.63;2.20;;;;;;;;;;6183395;23;20011;-85
2023/12/22 02:48:41;;;;;;;11.63;1.63;;;;;;;;;;6183583;23;20116;-85
2023/12/22 02:51:06;;;;;;;11.68;1.80;;;;;;;;;;6184000;23;20033;-85
2023/12/22 02:53:32;;;;;;;10.80;1.63;;;;;;;;;;6185918;23;20013;-84
2023/12/22 02:55:57;;;;;;;13.52;1.85;;;;;;;;;;6183713;23;19997;-85
2023/12/22 02:58:23;;;;;;;8.60;1.10;;;;;;;;;;6183127;23;20313;-84
2023/12/22 03:00:48;;;;;;;15.68;2.13;;;;;;;;;;6184093;23;20005;-85
2023/12/22 03:03:14;;;;;;;8.88;1.25;;;;;;;;;;6184131;23;20088;-85
2023/12/22 03:05:39;;;;;;;11.70;1.88;;;;;;;;;;6183223;23;20051;-85
2023/12/22 03:08:05;;;;;;;8.90;1.75;;;;;;;;;;6184858;23;20015;-84
2023/12/22 03:10:30;;;;;;;13.52;1.70;;;;;;;;;;6183063;23;20747;-85
2023/12/22 03:12:56;;;;;;;11.82;1.92;;;;;;;;;;6183481;23;20029;-85
2023/12/22 03:15:21;;;;;;;13.40;1.83;;;;;;;;;;6183516;23;20001;-85
2023/12/22 03:17:47;;;;;;;15.82;1.98;;;;;;;;;;6183045;23;20250;-85
2023/12/22 03:20:12;;;;;;;12.98;1.75;;;;;;;;;;6183092;23;20429;-85
2023/12/22 03:22:38;;;;;;;14.13;1.58;;;;;;;;;;6183482;23;20459;-85
2023/12/22 03:25:03;;;;;;;18.67;2.00;;;;;;;;;;6183312;23;20009;-84
2023/12/22 03:27:29;;;;;;;16.58;2.05;;;;;;;;;;6183340;23;20012;-85
2023/12/22 03:29:54;;;;;;;13.43;1.83;;;;;;;;;;6182504;23;20005;-85
2023/12/22 03:32:20;;;;;;;10.38;1.58;;;;;;;;;;6182793;23;20012;-84
2023/12/22 03:34:45;;;;;;;17.90;2.03;;;;;;;;;;6183631;23;20008;-85
2023/12/22 03:37:11;;;;;;;5.93;1.63;;;;;;;;;;6183035;23;20004;-85
2023/12/22 03:39:36;;;;;;;10.10;1.20;;;;;;;;;;6182917;23;20012;-84
2023/12/22 03:42:02;;;;;;;8.32;1.42;;;;;;;;;;6183335;23;20001;-85
2023/12/22 03:44:27;;;;;;;11.25;1.60;;;;;;;;;;6183486;23;20009;-85
2023/12/22 03:46:53;;;;;;;10.40;1.20;;;;;;;;;;6181097;23;20028;-85
2023/12/22 03:49:19;;;;;;;6.75;1.60;;;;;;;;;;6181551;23;20059;-85
2023/12/22 03:51:45;;;;;;;13.10;2.05;;;;;;;;;;6181625;23;20017;-85
2023/12/22 03:54:11;;;;;;;9.50;1.55;;;;;;;;;;6183414;23;20084;-85
2023/12/22 03:56:37;;;;;;;7.03;1.10;;;;;;;;;;6181175;23;20001;-85
2023/12/22 03:59:02;;;;;;;9.77;1.65;;;;;;;;;;6180376;23;20349;-85
2023/12/22 04:01:28;;;;;;;10.30;2.20;;;;;;;;;;6183200;23;20013;-85
2023/12/22 04:03:53;;;;;;;15.38;2.10;;;;;;;;;;6182103;23;20103;-85
2023/12/22 04:06:19;;;;;;;11.18;1.52;;;;;;;;;;6181807;23;20009;-85
2023/12/22 04:08:44;;;;;;;12.13;1.90;;;;;;;;;;6181237;23;20063;-85
2023/12/22 04:11:10;;;;;;;12.27;1.92;;;;;;;;;;6181762;23;20008;-85
2023/12/22 04:13:35;;;;;;;16.35;1.88;;;;;;;;;;6182136;23;20060;-85
2023/12/22 04:16:04;;;;;;;13.48;1.90;;;;;;;;;;6182379;23;20004;-85
2023/12/22 04:18:30;;;;;;;11.35;1.58;;;;;;;;;;6181312;23;20078;-85
2023/12/22 04:20:55;;;;;;;10.88;1.58;;;;;;;;;;6182009;23;20012;-85
2023/12/22 04:23:21;;;;;;;13.05;1.85;;;;;;;;;;6183159;23;20349;-85
2023/12/22 04:25:46;;;;;;;13.25;1.92;;;;;;;;;;6183321;23;20017;-85
2023/12/22 04:28:11;;;;;;;14.80;1.40;;;;;;;;;;6183147;23;20121;-85
2023/12/22 04:30:37;;;;;;;13.73;1.60;;;;;;;;;;6182911;23;20181;-85
2023/12/22 04:33:03;;;;;;;12.38;1.67;;;;;;;;;;6182817;23;20341;-85
2023/12/22 04:35:28;;;;;;;10.80;1.77;;;;;;;;;;6183280;23;20059;-85
2023/12/22 04:37:53;;;;;;;15.55;1.73;;;;;;;;;;6182510;23;20008;-86
2023/12/22 04:40:19;;;;;;;15.48;2.50;;;;;;;;;;6182461;23;20576;-85
2023/12/22 04:42:45;;;;;;;11.63;2.00;;;;;;;;;;6181241;23;20361;-85
2023/12/22 04:45:10;;;;;;;10.75;1.63;;;;;;;;;;6182486;23;20032;-86
2023/12/22 04:47:36;;;;;;;13.63;2.30;;;;;;;;;;6182265;23;20008;-86
2023/12/22 04:50:01;;;;;;;15.13;1.73;;;;;;;;;;6182242;23;20016;-85
2023/12/22 04:52:28;;;;;;;16.30;2.00;;;;;;;;;;6182086;23;20029;-85
2023/12/22 04:54:53;;;;;;;11.85;1.50;;;;;;;;;;6182393;23;20489;-86
2023/12/22 04:57:19;;;;;;;11.25;2.00;;;;;;;;;;6181563;23;20005;-86
2023/12/22 04:59:44;;;;;;;9.88;1.33;;;;;;;;;;6181604;23;20009;-86
2023/12/22 05:02:10;;;;;;;11.80;1.65;;;;;;;;;;6184405;23;20433;-85
2023/12/22 05:04:35;;;;;;;8.02;1.50;;;;;;;;;;6183115;23;20016;-86
2023/12/22 05:07:01;;;;;;;9.25;1.40;;;;;;;;;;6184076;23;20012;-84
2023/12/22 05:09:28;;;;;;;9.18;1.60;;;;;;;;;;6184405;23;20036;-86
2023/12/22 05:11:53;;;;;;;8.25;1.50;;;;;;;;;;6184832;23;20142;-86
2023/12/22 05:14:19;;;;;;;9.73;1.30;;;;;;;;;;6184370;23;20005;-86
2023/12/22 05:16:44;;;;;;;11.63;1.77;;;;;;;;;;6183872;23;20005;-85
2023/12/22 05:19:10;;;;;;;8.35;1.17;;;;;;;;;;6183283;23;20397;-86
2023/12/22 05:21:36;;;;;;;13.25;1.65;;;;;;;;;;6183394;23;20005;-86
2023/12/22 05:24:02;;;;;;;7.93;1.50;;;;;;;;;;6183655;23;20012;-86
2023/12/22 05:26:30;;;;;;;8.02;1.33;;;;;;;;;;6183612;23;20067;-86
2023/12/22 05:28:56;;;;;;;11.77;1.20;;;;;;;;;;6184049;23;20464;-85
2023/12/22 05:31:21;;;;;;;11.88;1.48;;;;;;;;;;6183775;23;20108;-86
2023/12/22 05:33:47;;;;;;;11.68;1.30;;;;;;;;;;6184237;23;20381;-86
2023/12/22 05:36:12;;;;;;;13.23;2.28;;;;;;;;;;6183580;23;20353;-85
2023/12/22 05:38:38;;;;;;;9.27;1.40;;;;;;;;;;6184308;23;20013;-86
2023/12/22 05:41:05;;;;;;;9.32;1.10;;;;;;;;;;6182865;23;20004;-85
2023/12/22 05:43:30;;;;;;;11.40;1.42;;;;;;;;;;6184040;23;20035;-86
2023/12/22 05:45:56;;;;;;;9.02;1.52;;;;;;;;;;6183778;23;20013;-86
2023/12/22 05:48:21;;;;;;;8.73;1.60;;;;;;;;;;6183394;23;20005;-86
2023/12/22 05:50:48;;;;;;;10.82;1.35;;;;;;;;;;6184280;23;20009;-86
2023/12/22 05:53:13;;;;;;;10.02;1.65;;;;;;;;;;6183318;23;20035;-84
2023/12/22 05:55:38;;;;;;;9.23;1.13;;;;;;;;;;6183061;23;20008;-86
2023/12/22 05:58:04;;;;;;;8.38;1.27;;;;;;;;;;6158028;23;20009;-85
2023/12/22 06:00:30;;;;;;;8.30;1.20;;;;;;;;;;6184520;23;20001;-85
2023/12/22 06:02:56;;;;;;;8.10;1.27;;;;;;;;;;6183939;23;20032;-86
2023/12/22 06:05:22;;;;;;;17.25;2.75;;;;;;;;;;6183665;23;20041;-85
2023/12/22 06:07:47;;;;;;;9.95;1.58;;;;;;;;;;6183489;23;20051;-85
2023/12/22 06:10:13;;;;;;;12.93;2.05;;;;;;;;;;6183106;23;20009;-85
2023/12/22 06:12:38;;;;;;;9.40;1.42;;;;;;;;;;6182010;23;20064;-85
2023/12/22 06:15:04;;;;;;;7.88;1.50;;;;;;;;;;6182153;23;20341;-85
2023/12/22 06:17:30;;;;;;;9.48;1.20;;;;;;;;;;6181232;23;20326;-85
2023/12/22 06:19:55;;;;;;;11.23;1.50;;;;;;;;;;6183691;23;20005;-85
2023/12/22 06:22:21;;;;;;;12.18;1.60;;;;;;;;;;6183749;23;20029;-85
2023/12/22 06:24:47;;;;;;;10.60;1.48;;;;;;;;;;6183649;23;20012;-85
2023/12/22 06:27:12;;;;;;;11.23;1.70;;;;;;;;;;6182652;23;20120;-85
2023/12/22 06:29:38;;;;;;;11.93;1.55;;;;;;;;;;6183815;23;20005;-86
2023/12/22 06:32:05;;;;;;;8.35;1.60;;;;;;;;;;6183056;23;20008;-85
2023/12/22 06:34:31;;;;;;;11.57;1.63;;;;;;;;;;6184616;23;20004;-85
2023/12/22 06:36:57;;;;;;;13.35;2.05;;;;;;;;;;6182667;23;20005;-85
2023/12/22 06:39:22;;;;;;;14.15;1.88;;;;;;;;;;6185539;23;20071;-85
2023/12/22 06:41:48;;;;;;;12.93;2.20;;;;;;;;;;6183896;23;20032;-85
2023/12/22 06:44:13;;;;;;;11.85;2.25;;;;;;;;;;6183552;23;20001;-85
2023/12/22 06:46:39;;;;;;;17.98;2.53;;;;;;;;;;6181945;23;20341;-85
2023/12/22 06:49:05;;;;;;;16.70;2.55;;;;;;;;;;6182521;23;20020;-85
2023/12/22 06:51:31;;;;;;;18.17;2.85;;;;;;;;;;6181770;23;20067;-85
2023/12/22 06:53:59;;;;;;;16.42;2.75;;;;;;;;;;6183262;23;20001;-85
2023/12/22 06:56:26;;;;;;;15.75;2.55;;;;;;;;;;6183397;23;20009;-85
2023/12/22 06:58:54;;;;;;;18.52;3.00;;;;;;;;;;6183141;23;20436;-85
2023/12/22 07:01:21;;;;;;;15.88;2.90;;;;;;;;;;6181712;23;20437;-86
2023/12/22 07:03:48;;;;;;;15.57;2.80;;;;;;;;;;6180916;23;20373;-84
2023/12/22 07:06:14;;;;;;;14.55;2.90;;;;;;;;;;6182356;23;20088;-85
2023/12/22 07:08:40;;;;;;;16.42;2.78;;;;;;;;;;6182618;23;20005;-85
2023/12/22 07:11:05;;;;;;;15.80;2.55;;;;;;;;;;6183342;23;20016;-85
2023/12/22 07:13:30;;;;;;;19.92;3.05;;;;;;;;;;6183433;23;20001;-85
2023/12/22 07:15:56;;;;;;;15.57;2.83;;;;;;;;;;6183083;23;20139;-86
2023/12/22 07:18:21;;;;;;;15.10;3.13;;;;;;;;;;6182833;23;20080;-86
2023/12/22 07:20:48;;;;;;;16.92;3.05;;;;;;;;;;6184326;23;20001;-86
2023/12/22 07:23:14;;;;;;;20.17;3.35;;;;;;;;;;6183954;23;20021;-86
2023/12/22 07:25:39;;;;;;;18.17;3.08;;;;;;;;;;6183696;23;20009;-86
2023/12/22 07:28:06;;;;;;;18.10;2.72;;;;;;;;;;6182564;23;20032;-86
2023/12/22 07:30:31;;;;;;;21.98;3.95;;;;;;;;;;6183004;23;20005;-86
2023/12/22 07:32:56;;;;;;;22.95;3.85;;;;;;;;;;6181686;23;20036;-86
2023/12/22 07:35:22;;;;;;;15.50;2.60;;;;;;;;;;6182511;23;20005;-87
2023/12/22 07:37:47;;;;;;;19.25;3.03;;;;;;;;;;6182508;23;20655;-87
2023/12/22 07:40:13;;;;;;;21.45;2.95;;;;;;;;;;6183192;23;20028;-86
2023/12/22 07:42:40;;;;;;;18.75;2.90;;;;;;;;;;6181498;23;20056;-86
2023/12/22 07:45:05;;;;;;;18.80;2.90;;;;;;;;;;6181998;23;20044;-86
2023/12/22 07:47:32;;;;;;;16.85;2.92;;;;;;;;;;6180101;23;20065;-87
2023/12/22 07:49:59;;;;;;;12.48;2.90;;;;;;;;;;6182753;23;20025;-86
2023/12/22 07:52:24;;;;;;;18.20;3.40;;;;;;;;;;6182084;23;20027;-86
2023/12/22 07:54:51;;;;;;;25.45;3.67;;;;;;;;;;6182543;23;20441;-86
2023/12/22 07:57:16;;;;;;;19.63;3.22;;;;;;;;;;6182994;23;20005;-87
2023/12/22 07:59:42;;;;;;;19.45;3.45;;;;;;;;;;6183825;23;20012;-86
2023/12/22 08:02:08;;;;;;;24.92;3.33;;;;;;;;;;6182201;23;20094;-86
2023/12/22 08:04:33;;;;;;;20.50;3.60;;;;;;;;;;6181940;23;20009;-86
2023/12/22 08:06:59;;;;;;;22.23;3.08;;;;;;;;;;6183027;23;20020;-87
2023/12/22 08:09:24;;;;;;;16.98;3.13;;;;;;;;;;6182583;23;20598;-86
2023/12/22 08:11:52;;;;;;;22.40;3.92;;;;;;;;;;6184642;23;20004;-86
2023/12/22 08:14:19;;;;;;;19.90;3.00;;;;;;;;;;6183211;23;20071;-86
2023/12/22 08:16:44;;;;;;;21.23;2.72;;;;;;;;;;6183056;23;20000;-86
2023/12/22 08:19:10;;;;;;;17.25;2.85;;;;;;;;;;6182523;23;20141;-86
2023/12/22 08:21:37;;;;;;;14.32;2.88;;;;;;;;;;6182985;23;20064;-86
2023/12/22 08:24:02;;;;;;;19.67;3.22;;;;;;;;;;6183387;23;20001;-86
2023/12/22 08:26:28;;;;;;;23.00;3.40;;;;;;;;;;6182194;23;20015;-86
2023/12/22 08:28:53;;;;;;;17.67;3.30;;;;;;;;;;6185208;23;20012;-85
2023/12/22 08:31:19;;;;;;;20.13;2.95;;;;;;;;;;6182337;23;20012;-87
2023/12/22 08:33:45;;;;;;;19.40;2.60;;;;;;;;;;6182566;23;20011;-86
2023/12/22 08:36:11;;;;;;;23.30;2.80;;;;;;;;;;6183553;23;19997;-86
2023/12/22 08:38:40;;;;;;;15.82;2.90;;;;;;;;;;6183594;23;20043;-87
2023/12/22 08:41:07;;;;;;;16.70;2.65;;;;;;;;;;6183441;23;20017;-86
2023/12/22 08:43:33;;;;;;;12.82;2.53;;;;;;;;;;6183214;23;20005;-86
2023/12/22 08:45:58;;;;;;;14.85;2.53;;;;;;;;;;6182230;23;20094;-86
2023/12/22 08:48:23;;;;;;;11.80;2.10;;;;;;;;;;6183969;23;20437;-86
2023/12/22 08:50:49;;;;;;;15.25;2.47;;;;;;;;;;6183155;23;20013;-86
2023/12/22 08:53:15;;;;;;;16.25;2.20;;;;;;;;;;6183700;23;20008;-86
2023/12/22 08:55:40;;;;;;;12.25;2.03;;;;;;;;;;6183341;23;20299;-87
2023/12/22 08:58:06;;;;;;;11.23;2.03;;;;;;;;;;6184092;23;20004;-86
2023/12/22 09:00:31;;;;;;;14.65;2.20;;;;;;;;;;6183347;23;20012;-86
2023/12/22 09:02:57;;;;;;;15.32;2.10;;;;;;;;;;6185937;23;20016;-86
2023/12/22 09:05:23;;;;;;;9.52;1.77;;;;;;;;;;6183586;23;20001;-86
2023/12/22 09:07:48;;;;;;;8.48;1.60;;;;;;;;;;6184239;23;20001;-86
2023/12/22 09:10:14;;;;;;;11.98;2.10;;;;;;;;;;6185281;23;20001;-86
2023/12/22 09:12:39;;;;;;;12.02;1.77;;;;;;;;;;6183628;23;20005;-86
2023/12/22 09:15:05;;;;;;;11.65;1.92;;;;;;;;;;6183711;23;20035;-86
2023/12/22 09:17:32;;;;;;;10.13;2.10;;;;;;;;;;6184200;23;20013;-87
2023/12/22 09:19:58;;;;;;;10.95;1.98;;;;;;;;;;6183649;23;20019;-86
2023/12/22 09:22:23;;;;;;;10.15;1.83;;;;;;;;;;6184294;23;20040;-87
2023/12/22 09:24:50;;;;;;;8.40;1.90;;;;;;;;;;6183928;23;20071;-85
2023/12/22 09:27:15;;;;;;;7.25;1.58;;;;;;;;;;6183333;23;20037;-86
2023/12/22 09:29:41;;;;;;;12.13;1.95;;;;;;;;;;6182826;23;20016;-86
2023/12/22 09:32:06;;;;;;;10.73;1.60;;;;;;;;;;6183272;23;20008;-87
2023/12/22 09:34:32;;;;;;;6.82;1.40;;;;;;;;;;6165105;23;20009;-87
2023/12/22 09:36:57;;;;;;;9.10;1.65;;;;;;;;;;6177758;23;20005;-86
2023/12/22 09:39:22;;;;;;;15.77;1.70;;;;;;;;;;6177641;23;20008;-86
2023/12/22 09:41:49;;;;;;;7.88;1.27;;;;;;;;;;6153700;23;20045;-87
2023/12/22 09:44:20;;;;;;;7.05;1.27;;;;;;;;;;6178412;23;20001;-86
2023/12/22 09:46:49;;;;;;;11.18;1.77;;;;;;;;;;6179416;23;20009;-85
2023/12/22 09:49:18;;;;;;;9.43;1.80;;;;;;;;;;6179998;23;20034;-87
2023/12/22 09:51:45;;;;;;;7.82;1.67;;;;;;;;;;6180576;23;20084;-87
2023/12/22 09:54:11;;;;;;;11.27;1.20;;;;;;;;;;6180051;23;20009;-87
2023/12/22 09:56:42;;;;;;;8.43;1.05;;;;;;;;;;6180732;23;20008;-87
2023/12/22 09:59:12;;;;;;;6.15;1.20;;;;;;;;;;6180099;23;20016;-87
2023/12/22 10:01:42;;;;;;;7.50;1.30;;;;;;;;;;6179760;23;20024;-87
2023/12/22 10:04:08;;;;;;;6.72;1.23;;;;;;;;;;6176394;23;20008;-87
2023/12/22 10:06:33;;;;;;;3.97;1.05;;;;;;;;;;6153024;23;20327;-87
2023/12/22 10:08:59;;;;;;;6.63;1.15;;;;;;;;;;6177887;23;20349;-87
2023/12/22 10:11:26;;;;;;;6.30;1.30;;;;;;;;;;6178229;23;20214;-87
2023/12/22 10:13:53;;;;;;;4.55;1.38;;;;;;;;;;6176582;23;20019;-87
2023/12/22 10:16:18;;;;;;;6.15;1.20;;;;;;;;;;6176376;23;20001;-87
2023/12/22 10:18:45;;;;;;;5.60;1.10;;;;;;;;;;6176479;23;20008;-86
2023/12/22 10:21:11;;;;;;;4.93;1.23;;;;;;;;;;6178971;23;20008;-87
2023/12/22 10:23:38;;;;;;;5.78;1.05;;;;;;;;;;6179105;23;20008;-87
2023/12/22 10:26:05;;;;;;;4.50;0.98;;;;;;;;;;6174860;23;20012;-86
2023/12/22 10:28:30;;;;;;;3.75;1.00;;;;;;;;;;6170416;23;20361;-87
2023/12/22 10:30:59;;;;;;;4.45;0.90;;;;;;;;;;6178948;23;20009;-86
2023/12/22 10:33:24;;;;;;;5.70;1.30;;;;;;;;;;6178334;23;20009;-86
2023/12/22 10:35:52;;;;;;;4.43;0.98;;;;;;;;;;6176511;23;20007;-86
2023/12/22 10:38:19;;;;;;;6.60;1.30;;;;;;;;;;6179147;23;20009;-87
2023/12/22 10:40:46;;;;;;;2.53;1.00;;;;;;;;;;6179984;23;20088;-89
2023/12/22 10:43:11;;;;;;;4.32;1.08;;;;;;;;;;6178272;23;20063;-88
2023/12/22 10:45:37;;;;;;;4.60;1.10;;;;;;;;;;6178370;23;20670;-88
2023/12/22 10:48:03;;;;;;;7.72;1.38;;;;;;;;;;6178518;23;20279;-88
2023/12/22 10:50:29;;;;;;;4.97;1.15;;;;;;;;;;6179587;23;20012;-89
2023/12/22 10:52:54;;;;;;;3.55;1.10;;;;;;;;;;6178480;23;20005;-88
2023/12/22 10:55:20;;;;;;;5.55;1.20;;;;;;;;;;6178093;23;20013;-90
2023/12/22 10:57:46;;;;;;;4.43;1.20;;;;;;;;;;6177421;23;20013;-87
2023/12/22 11:00:16;;;;;;;4.30;1.35;;;;;;;;;;6179378;23;20519;-85
2023/12/22 11:02:53;;;;;;;6.18;1.17;;;;;;;;;;6177308;23;20035;-86
2023/12/22 11:05:24;;;;;;;4.85;1.08;;;;;;;;;;6176352;23;20426;-86
2023/12/22 11:08:08;;;;;;;5.68;1.10;;;;;;;;;;6176971;23;20005;-87
2023/12/22 11:10:39;;;;;;;3.60;1.00;;;;;;;;;;6178075;23;20353;-87
2023/12/22 11:13:04;;;;;;;4.40;1.17;;;;;;;;;;6178054;23;20088;-87
2023/12/22 11:15:31;;;;;;;5.82;1.10;;;;;;;;;;6174085;23;20051;-87
2023/12/22 11:18:01;;;;;;;4.43;1.13;;;;;;;;;;6175835;23;20042;-87
2023/12/22 11:20:27;;;;;;;6.72;1.40;;;;;;;;;;6176823;23;20008;-87
2023/12/22 11:22:55;;;;;;;4.75;1.40;;;;;;;;;;6178414;23;20056;-87
2023/12/22 11:25:22;;;;;;;6.85;1.50;;;;;;;;;;6173826;23;20032;-87
2023/12/22 11:27:53;;;;;;;5.15;1.23;;;;;;;;;;6177461;23;20075;-86
2023/12/22 11:30:22;;;;;;;5.00;1.08;;;;;;;;;;6179373;23;20081;-88
2023/12/22 11:32:50;;;;;;;4.13;1.20;;;;;;;;;;6178795;23;20009;-86
2023/12/22 11:35:17;;;;;;;9.85;1.55;;;;;;;;;;6174442;23;20004;-87
2023/12/22 11:37:42;;;;;;;4.13;1.20;;;;;;;;;;6177054;23;20009;-86
2023/12/22 11:40:08;;;;;;;4.18;1.20;;;;;;;;;;6175594;23;20020;-86
2023/12/22 11:42:42;;;;;;;5.82;1.50;;;;;;;;;;6178881;23;20039;-86
2023/12/22 11:45:11;;;;;;;2.30;1.00;;;;;;;;;;6172298;23;20011;-86
2023/12/22 11:47:37;;;;;;;4.22;1.20;;;;;;;;;;6174226;23;20012;-87
2023/12/22 11:50:03;;;;;;;5.68;1.20;;;;;;;;;;6177277;23;20476;-86
2023/12/22 11:52:29;;;;;;;5.20;0.90;;;;;;;;;;6175797;23;20005;-86
2023/12/22 11:54:55;;;;;;;4.15;0.90;;;;;;;;;;6175911;23;20016;-87
2023/12/22 11:57:37;;;;;;;4.03;1.08;;;;;;;;;;6176750;23;20005;-86
2023/12/22 12:00:09;;;;;;;6.15;1.00;;;;;;;;;;6177572;23;20016;-86
2023/12/22 12:02:35;;;;;;;4.32;0.95;;;;;;;;;;6177537;23;20009;-87
2023/12/22 12:05:01;;;;;;;6.40;1.00;;;;;;;;;;6173652;23;20009;-86
2023/12/22 12:07:50;;;;;;;4.68;0.85;;;;;;;;;;6176583;23;20012;-87
2023/12/22 12:10:35;;;;;;;4.63;1.00;;;;;;;;;;6176160;23;20021;-91
2023/12/22 12:13:11;;;;;;;8.70;1.30;;;;;;;;;;6174555;23;20449;-91
2023/12/22 12:15:38;;;;;;;6.43;1.00;;;;;;;;;;6174982;23;20052;-90
2023/12/22 12:18:05;;;;;;;3.22;0.98;;;;;;;;;;6178586;23;20015;-90
2023/12/22 12:20:34;;;;;;;6.93;1.30;;;;;;;;;;6177110;23;20444;-91
2023/12/22 12:23:01;;;;;;;8.05;1.30;;;;;;;;;;6174186;23;20076;-91
2023/12/22 12:25:31;;;;;;;7.40;1.35;;;;;;;;;;6177084;23;20001;-92
2023/12/22 12:28:05;;;;;;;6.03;1.50;;;;;;;;;;6178933;23;20044;-91
2023/12/22 12:30:32;;;;;;;4.65;0.90;;;;;;;;;;6175588;23;20032;-92
2023/12/22 12:33:12;;;;;;;7.20;1.55;;;;;;;;;;6176215;23;20441;-92
2023/12/22 12:35:38;;;;;;;7.68;1.85;;;;;;;;;;6152193;23;20009;-92
2023/12/22 12:38:04;;;;;;;5.88;1.70;;;;;;;;;;6180882;23;20004;-90
2023/12/22 12:40:32;;;;;;;4.93;1.10;;;;;;;;;;6183928;23;20064;-90
2023/12/22 12:42:58;;;;;;;4.45;1.50;;;;;;;;;;6183040;23;20344;-90
2023/12/22 12:45:26;;;;;;;7.55;1.20;;;;;;;;;;6184940;23;20012;-90
2023/12/22 12:48:02;;;;;;;6.10;1.20;;;;;;;;;;6181801;23;19997;-86
2023/12/22 12:50:28;;;;;;;3.95;1.20;;;;;;;;;;6182380;23;20060;-86
2023/12/22 12:52:55;;;;;;;4.38;1.05;;;;;;;;;;6181818;23;20012;-85
2023/12/22 12:55:22;;;;;;;6.20;1.40;;;;;;;;;;6182368;23;20001;-87
2023/12/22 12:57:55;;;;;;;5.43;0.88;;;;;;;;;;6171002;23;20064;-87
2023/12/22 13:00:24;;;;;;;4.05;0.85;;;;;;;;;;6175722;23;20092;-87
2023/12/22 13:02:50;;;;;;;6.82;0.93;;;;;;;;;;6178093;23;20020;-87
2023/12/22 13:05:25;;;;;;;8.18;1.00;;;;;;;;;;6178257;23;20373;-86
2023/12/22 13:07:51;;;;;;;5.88;0.82;;;;;;;;;;6177818;23;20005;-87
2023/12/22 13:10:24;;;;;;;6.55;1.02;;;;;;;;;;6178472;23;20032;-86
2023/12/22 13:12:54;;;;;;;7.45;1.20;;;;;;;;;;6178596;23;20009;-87
2023/12/22 13:15:22;;;;;;;6.30;1.60;;;;;;;;;;6178045;23;20009;-87
2023/12/22 13:17:49;;;;;;;9.15;1.30;;;;;;;;;;6165770;23;20009;-86
2023/12/22 13:20:15;;;;;;;5.82;0.90;;;;;;;;;;6171582;23;20015;-86
2023/12/22 13:22:40;;;;;;;5.65;1.17;;;;;;;;;;6173748;23;20012;-86
2023/12/22 13:25:06;;;;;;;7.20;1.40;;;;;;;;;;6168189;23;20005;-86
2023/12/22 13:27:47;;;;;;;6.07;1.10;;;;;;;;;;6171658;23;20009;-86
2023/12/22 13:30:36;;;;;;;9.18;1.48;;;;;;;;;;6175087;23;20412;-86
2023/12/22 13:33:04;;;;;;;6.18;1.17;;;;;;;;;;6169456;23;20071;-86
2023/12/22 13:35:30;;;;;;;5.22;0.90;;;;;;;;;;6175886;23;20012;-87
2023/12/22 13:37:59;;;;;;;4.18;0.80;;;;;;;;;;6175716;23;20047;-86
2023/12/22 13:40:24;;;;;;;8.80;1.02;;;;;;;;;;6174442;23;20005;-86
2023/12/22 13:43:03;;;;;;;7.63;1.15;;;;;;;;;;6174437;23;20005;-86
2023/12/22 13:45:29;;;;;;;4.85;0.80;;;;;;;;;;6173585;23;20016;-86
2023/12/22 13:47:55;;;;;;;5.32;1.20;;;;;;;;;;6174975;23;20013;-87
2023/12/22 13:50:23;;;;;;;4.07;0.93;;;;;;;;;;6175591;23;20096;-86
2023/12/22 13:52:50;;;;;;;5.22;1.10;;;;;;;;;;6175443;23;20424;-87
2023/12/22 13:55:17;;;;;;;8.73;1.30;;;;;;;;;;6173986;23;20016;-86
2023/12/22 13:57:43;;;;;;;7.88;1.35;;;;;;;;;;6173395;23;20036;-86
2023/12/22 14:00:18;;;;;;;4.68;0.95;;;;;;;;;;6173515;23;20115;-86
2023/12/22 14:02:44;;;;;;;9.68;1.90;;;;;;;;;;6175225;23;20004;-86
2023/12/22 14:05:10;;;;;;;5.93;1.40;;;;;;;;;;6174580;23;20047;-87
2023/12/22 14:07:35;;;;;;;6.88;1.48;;;;;;;;;;6173370;23;20041;-86
2023/12/22 14:10:08;;;;;;;6.22;1.40;;;;;;;;;;6172534;23;20016;-86
2023/12/22 14:12:34;;;;;;;7.45;1.48;;;;;;;;;;6174239;23;20092;-86
2023/12/22 14:14:59;;;;;;;5.97;1.00;;;;;;;;;;6174461;23;20033;-86
2023/12/22 14:17:25;;;;;;;5.07;1.10;;;;;;;;;;6170357;23;20088;-86
2023/12/22 14:19:50;;;;;;;7.05;1.10;;;;;;;;;;6172370;23;20536;-86
2023/12/22 14:22:44;;;;;;;7.45;1.27;;;;;;;;;;6174321;23;20012;-84
2023/12/22 14:25:18;;;;;;;7.35;0.98;;;;;;;;;;6173391;23;20052;-86
2023/12/22 14:27:43;;;;;;;4.15;0.93;;;;;;;;;;6171005;23;20020;-86
2023/12/22 14:30:09;;;;;;;4.10;1.15;;;;;;;;;;6172208;23;20407;-86
2023/12/22 14:32:35;;;;;;;7.28;1.33;;;;;;;;;;6171917;23;20019;-86
2023/12/22 14:35:00;;;;;;;3.47;0.88;;;;;;;;;;6172953;23;20694;-86